createdAt,value
2022-12-14T00:01:37.734Z,12.87
2022-12-14T00:04:04.522Z,10.80
2022-12-14T00:06:34.056Z,10.60
2022-12-14T00:09:04.159Z,10.00
2022-12-14T00:11:32.642Z,10.50
2022-12-14T00:14:01.928Z,11.50
2022-12-14T00:16:31.531Z,10.63
2022-12-14T00:19:01.136Z,12.40
2022-12-14T00:21:28.248Z,11.93
2022-12-14T00:23:55.692Z,11.67
2022-12-14T00:26:25.225Z,11.67
2022-12-14T00:28:53.909Z,12.57
2022-12-14T00:31:21.546Z,11.70
2022-12-14T00:33:48.421Z,9.53
2022-12-14T00:36:15.289Z,10.50
2022-12-14T00:38:42.566Z,9.30
2022-12-14T00:41:10.691Z,9.43
2022-12-14T00:43:37.638Z,13.23
2022-12-14T00:46:05.549Z,12.57
2022-12-14T00:48:32.993Z,11.17
2022-12-14T00:51:00.649Z,12.43
2022-12-14T00:53:27.376Z,12.40
2022-12-14T00:55:54.291Z,13.07
2022-12-14T00:58:24.963Z,10.83
2022-12-14T01:01:03.348Z,11.70
2022-12-14T01:03:30.831Z,11.50
2022-12-14T01:05:58.447Z,10.37
2022-12-14T01:08:25.547Z,13.00
2022-12-14T01:10:52.515Z,11.10
2022-12-14T01:13:19.287Z,10.60
2022-12-14T01:15:46.031Z,11.20
2022-12-14T01:18:13.185Z,11.77
2022-12-14T01:20:39.826Z,11.60
2022-12-14T01:23:06.507Z,12.13
2022-12-14T01:25:33.254Z,11.50
2022-12-14T01:27:59.954Z,12.13
2022-12-14T01:30:26.650Z,11.40
2022-12-14T01:32:53.642Z,9.43
2022-12-14T01:35:20.412Z,15.50
2022-12-14T01:37:49.284Z,13.30
2022-12-14T01:40:16.896Z,12.70
2022-12-14T01:42:43.556Z,13.33
2022-12-14T01:45:19.283Z,11.13
2022-12-14T01:47:51.403Z,12.30
2022-12-14T01:50:26.187Z,11.73
2022-12-14T01:52:58.768Z,10.80
2022-12-14T01:55:37.838Z,9.80
2022-12-14T01:58:28.994Z,11.10
2022-12-14T02:01:01.228Z,10.40
2022-12-14T02:03:35.339Z,9.70
2022-12-14T02:06:14.534Z,12.30
2022-12-14T02:08:44.224Z,10.60
2022-12-14T02:11:11.112Z,12.33
2022-12-14T02:13:40.663Z,13.30
2022-12-14T02:16:10.717Z,11.23
2022-12-14T02:18:37.586Z,10.33
2022-12-14T02:21:23.080Z,11.37
2022-12-14T02:24:34.635Z,10.00
2022-12-14T02:27:21.403Z,9.93
2022-12-14T02:30:07.283Z,12.97
2022-12-14T02:32:55.504Z,13.10
2022-12-14T02:35:57.057Z,11.90
2022-12-14T02:38:50.396Z,11.80
2022-12-14T02:41:49.622Z,13.40
2022-12-14T02:44:33.852Z,13.13
2022-12-14T02:47:14.594Z,12.97
2022-12-14T02:49:52.133Z,14.13
2022-12-14T02:52:47.556Z,15.10
2022-12-14T02:55:23.758Z,13.53
2022-12-14T02:58:00.226Z,12.40
2022-12-14T03:00:29.214Z,11.60
2022-12-14T03:02:57.392Z,11.77
2022-12-14T03:05:24.197Z,13.53
2022-12-14T03:07:54.654Z,12.10
2022-12-14T03:10:36.548Z,11.60
2022-12-14T03:13:15.737Z,15.03
2022-12-14T03:15:46.780Z,13.70
2022-12-14T03:18:18.031Z,15.77
2022-12-14T03:20:49.070Z,15.97
2022-12-14T03:23:22.382Z,14.57
2022-12-14T03:26:01.042Z,14.50
2022-12-14T03:28:47.188Z,14.77
2022-12-14T03:31:20.411Z,12.47
2022-12-14T03:33:50.131Z,11.10
2022-12-14T03:36:32.382Z,12.67
2022-12-14T03:39:02.557Z,13.77
2022-12-14T03:41:38.097Z,13.47
2022-12-14T03:44:33.915Z,11.43
2022-12-14T03:47:33.207Z,10.83
2022-12-14T03:50:16.134Z,14.27
2022-12-14T03:52:45.074Z,9.67
2022-12-14T03:55:31.590Z,11.10
2022-12-14T03:58:07.533Z,10.80
2022-12-14T04:00:43.276Z,12.40
2022-12-14T04:03:19.234Z,11.80
2022-12-14T04:05:49.456Z,12.80
2022-12-14T04:08:44.427Z,12.30
2022-12-14T04:11:33.996Z,12.80
2022-12-14T04:14:32.623Z,13.57
2022-12-14T04:17:23.609Z,11.50
2022-12-14T04:20:22.358Z,12.30
2022-12-14T04:22:56.204Z,11.57
2022-12-14T04:25:47.871Z,12.73
2022-12-14T04:28:40.184Z,10.90
2022-12-14T04:31:10.576Z,11.27
2022-12-14T04:33:48.885Z,13.33
2022-12-14T04:36:22.312Z,11.90
2022-12-14T04:38:55.705Z,13.17
2022-12-14T04:41:27.047Z,15.27
2022-12-14T04:43:56.071Z,13.07
2022-12-14T04:46:26.875Z,12.33
2022-12-14T04:49:09.909Z,12.50
2022-12-14T04:51:49.352Z,12.97
2022-12-14T04:54:25.400Z,13.07
2022-12-14T04:57:00.473Z,13.80
2022-12-14T04:59:27.539Z,15.00
2022-12-14T05:02:17.936Z,13.20
2022-12-14T05:04:55.976Z,11.67
2022-12-14T05:07:33.284Z,13.90
2022-12-14T05:10:06.304Z,13.27
2022-12-14T05:13:02.429Z,15.37
2022-12-14T05:15:34.743Z,13.43
2022-12-14T05:18:05.601Z,14.00
2022-12-14T05:20:32.633Z,14.20
2022-12-14T05:22:59.287Z,13.40
2022-12-14T05:25:26.005Z,16.10
2022-12-14T05:27:52.753Z,15.37
2022-12-14T05:30:19.641Z,15.70
2022-12-14T05:32:46.456Z,12.53
2022-12-14T05:35:14.068Z,11.77
2022-12-14T05:37:42.066Z,14.03
2022-12-14T05:40:10.104Z,14.50
2022-12-14T05:42:41.055Z,17.07
2022-12-14T05:45:15.138Z,14.60
2022-12-14T05:47:41.819Z,15.67
2022-12-14T05:50:09.037Z,13.40
2022-12-14T05:52:35.712Z,14.30
2022-12-14T05:55:04.577Z,18.80
2022-12-14T05:57:32.073Z,14.30
2022-12-14T05:59:58.737Z,12.83
2022-12-14T06:02:25.579Z,15.70
2022-12-14T06:04:52.468Z,15.33
2022-12-14T06:07:21.762Z,17.67
2022-12-14T06:09:52.905Z,15.97
2022-12-14T06:12:19.590Z,19.90
2022-12-14T06:14:46.272Z,18.43
2022-12-14T06:17:13.088Z,16.97
2022-12-14T06:19:39.707Z,17.53
2022-12-14T06:22:06.416Z,17.30
2022-12-14T06:24:33.070Z,15.83
2022-12-14T06:26:59.722Z,14.57
2022-12-14T06:29:26.448Z,14.50
2022-12-14T06:31:53.182Z,12.03
2022-12-14T06:34:23.579Z,12.60
2022-12-14T06:36:53.236Z,14.70
2022-12-14T06:39:19.976Z,14.77
2022-12-14T06:41:50.117Z,16.53
2022-12-14T06:44:16.802Z,14.00
2022-12-14T06:46:43.590Z,13.57
2022-12-14T06:49:17.117Z,16.93
2022-12-14T06:51:44.184Z,16.10
2022-12-14T06:54:12.594Z,12.97
2022-12-14T06:56:39.889Z,15.20
2022-12-14T06:59:08.780Z,16.90
2022-12-14T07:01:36.944Z,14.17
2022-12-14T07:04:04.864Z,14.80
2022-12-14T07:06:34.518Z,16.57
2022-12-14T07:09:02.581Z,19.00
2022-12-14T07:11:31.184Z,16.03
2022-12-14T07:14:00.992Z,14.30
2022-12-14T07:16:31.262Z,16.23
2022-12-14T07:21:50.332Z,16.13
2022-12-14T07:25:02.191Z,20.27
2022-12-14T07:27:27.571Z,17.00
2022-12-14T07:33:22.635Z,16.10
2022-12-14T07:46:02.173Z,15.90
2022-12-14T07:48:30.483Z,18.80
2022-12-14T07:51:13.310Z,16.70
2022-12-14T07:53:45.960Z,18.10
2022-12-14T07:56:15.463Z,20.10
2022-12-14T07:58:42.190Z,17.00
2022-12-14T08:01:14.853Z,20.97
2022-12-14T08:03:49.655Z,17.47
2022-12-14T08:06:17.820Z,16.70
2022-12-14T08:08:44.709Z,16.77
2022-12-14T08:11:11.791Z,14.50
2022-12-14T08:13:39.157Z,18.80
2022-12-14T08:16:14.407Z,15.87
2022-12-14T08:18:41.883Z,16.23
2022-12-14T08:21:10.195Z,16.57
2022-12-14T08:23:38.079Z,18.77
2022-12-14T08:26:06.775Z,18.80
2022-12-14T08:28:35.374Z,17.00
2022-12-14T08:31:15.964Z,16.90
2022-12-14T08:33:43.586Z,16.20
2022-12-14T08:36:16.636Z,20.83
2022-12-14T08:38:43.920Z,18.87
2022-12-14T08:41:14.951Z,18.83
2022-12-14T08:43:54.765Z,15.93
2022-12-14T08:46:21.675Z,18.57
2022-12-14T08:48:50.933Z,17.70
2022-12-14T08:51:18.001Z,16.57
2022-12-14T08:53:47.971Z,22.90
2022-12-14T08:56:17.995Z,18.80
2022-12-14T08:58:45.334Z,15.73
2022-12-14T09:01:15.941Z,19.83
2022-12-14T09:03:46.869Z,21.10
2022-12-14T09:06:19.098Z,19.13
2022-12-14T09:08:47.146Z,22.60
2022-12-14T09:11:19.095Z,19.33
2022-12-14T09:13:46.821Z,16.40
2022-12-14T09:16:18.445Z,21.00
2022-12-14T09:18:46.583Z,21.27
2022-12-14T09:21:13.873Z,19.53
2022-12-14T09:23:41.196Z,16.80
2022-12-14T09:26:12.711Z,20.37
2022-12-14T09:28:42.410Z,19.40
2022-12-14T09:31:11.901Z,17.63
2022-12-14T09:33:38.731Z,16.80
2022-12-14T09:36:14.376Z,15.17
2022-12-14T09:38:48.721Z,17.40
2022-12-14T09:41:36.231Z,15.20
2022-12-14T09:44:23.439Z,17.53
2022-12-14T09:46:58.289Z,15.50
2022-12-14T09:49:26.850Z,19.27
2022-12-14T09:51:55.300Z,16.70
2022-12-14T09:54:38.038Z,17.60
2022-12-14T09:57:14.028Z,17.93
2022-12-14T09:59:40.821Z,15.47
2022-12-14T10:02:38.014Z,18.70
2022-12-14T10:05:24.893Z,24.67
2022-12-14T10:08:04.719Z,17.13
2022-12-14T10:10:48.197Z,22.50
2022-12-14T10:13:27.085Z,16.40
2022-12-14T10:16:15.130Z,18.17
2022-12-14T10:19:02.440Z,18.20
2022-12-14T10:21:44.070Z,19.77
2022-12-14T10:24:17.748Z,18.70
2022-12-14T10:26:50.306Z,16.93
2022-12-14T10:29:16.858Z,20.77
2022-12-14T10:31:56.010Z,18.50
2022-12-14T10:34:28.001Z,15.20
2022-12-14T10:37:01.578Z,15.87
2022-12-14T10:39:43.010Z,16.63
2022-12-14T10:42:20.325Z,15.17
2022-12-14T10:45:41.523Z,14.73
2022-12-14T10:48:24.741Z,19.30
2022-12-14T10:51:00.493Z,19.90
2022-12-14T10:53:56.144Z,16.47
2022-12-14T10:56:30.138Z,19.00
2022-12-14T10:59:18.706Z,17.80
2022-12-14T11:01:48.227Z,16.97
2022-12-14T11:04:35.337Z,18.77
2022-12-14T11:07:15.199Z,22.97
2022-12-14T11:09:42.929Z,15.97
2022-12-14T11:12:20.928Z,16.67
2022-12-14T11:15:23.356Z,15.30
2022-12-14T11:18:01.800Z,15.43
2022-12-14T11:20:28.543Z,16.83
2022-12-14T11:23:07.030Z,15.40
2022-12-14T11:25:38.318Z,21.47
2022-12-14T11:28:16.734Z,17.07
2022-12-14T11:31:00.835Z,13.73
2022-12-14T11:33:34.965Z,16.17
2022-12-14T11:36:01.786Z,24.10
2022-12-14T11:38:30.437Z,18.90
2022-12-14T11:40:58.809Z,16.00
2022-12-14T11:43:30.016Z,16.40
2022-12-14T11:45:57.682Z,18.40
2022-12-14T11:48:26.611Z,17.53
2022-12-14T11:51:08.363Z,16.30
2022-12-14T11:53:39.877Z,20.40
2022-12-14T11:56:12.287Z,18.40
2022-12-14T11:58:47.795Z,19.50
2022-12-14T12:01:17.588Z,19.33
2022-12-14T12:03:48.619Z,17.93
2022-12-14T12:06:21.158Z,14.20
2022-12-14T12:08:53.687Z,14.00
2022-12-14T12:11:24.210Z,13.30
2022-12-14T12:13:56.882Z,12.67
2022-12-14T12:16:26.856Z,11.70
2022-12-14T12:19:07.910Z,14.33
2022-12-14T12:21:41.653Z,12.87
2022-12-14T12:24:18.571Z,13.70
2022-12-14T12:26:51.291Z,12.53
2022-12-14T12:29:40.640Z,14.57
2022-12-14T12:32:20.297Z,15.23
2022-12-14T12:35:24.824Z,16.73
2022-12-14T12:37:57.145Z,13.33
2022-12-14T12:40:56.186Z,18.23
2022-12-14T12:43:32.032Z,18.23
2022-12-14T12:46:05.659Z,20.30
2022-12-14T12:48:40.048Z,16.33
2022-12-14T12:51:18.889Z,16.10
2022-12-14T12:53:49.850Z,15.97
2022-12-14T12:56:25.405Z,13.93
2022-12-14T12:58:53.530Z,12.77
2022-12-14T13:01:26.434Z,13.60
2022-12-14T13:03:56.792Z,14.03
2022-12-14T13:06:42.528Z,16.17
2022-12-14T13:09:27.741Z,15.57
2022-12-14T13:11:55.568Z,13.97
2022-12-14T13:14:37.356Z,15.87
2022-12-14T13:17:10.706Z,12.00
2022-12-14T13:19:52.720Z,11.80
2022-12-14T13:22:28.602Z,12.63
2022-12-14T13:24:59.833Z,12.03
2022-12-14T13:27:53.068Z,14.97
2022-12-14T13:30:23.069Z,10.87
2022-12-14T13:33:20.850Z,11.97
2022-12-14T13:35:56.378Z,11.87
2022-12-14T13:38:36.354Z,15.70
2022-12-14T13:41:24.705Z,11.90
2022-12-14T13:44:09.855Z,11.47
2022-12-14T13:46:37.178Z,12.10
2022-12-14T13:49:07.478Z,12.07
2022-12-14T13:51:41.483Z,14.20
2022-12-14T13:54:21.205Z,14.00
2022-12-14T13:56:48.022Z,10.07
2022-12-14T13:59:36.969Z,15.80
2022-12-14T14:02:05.951Z,12.47
2022-12-14T14:04:35.736Z,10.17
2022-12-14T14:07:24.286Z,12.90
2022-12-14T14:10:02.119Z,11.70
2022-12-14T14:12:33.940Z,11.27
2022-12-14T14:15:26.333Z,12.17
2022-12-14T14:17:54.915Z,10.43
2022-12-14T14:20:38.859Z,15.93
2022-12-14T14:23:14.387Z,13.00
2022-12-14T14:25:54.409Z,11.97
2022-12-14T14:28:28.501Z,13.37
2022-12-14T14:30:59.783Z,14.17
2022-12-14T14:33:45.656Z,13.00
2022-12-14T14:36:25.061Z,12.80
2022-12-14T14:38:54.115Z,12.10
2022-12-14T14:41:28.073Z,12.80
2022-12-14T14:44:01.923Z,12.67
2022-12-14T14:46:39.190Z,11.57
2022-12-14T14:49:18.600Z,16.63
2022-12-14T14:51:45.413Z,13.67
2022-12-14T14:54:46.221Z,14.50
2022-12-14T14:57:35.371Z,12.40
2022-12-14T15:00:05.154Z,13.70
2022-12-14T15:02:39.344Z,16.40
2022-12-14T15:07:58.677Z,14.47
2022-12-14T15:10:37.058Z,15.40
2022-12-14T15:13:06.825Z,16.07
2022-12-14T15:15:37.561Z,16.90
2022-12-14T15:18:19.155Z,15.80
2022-12-14T15:21:02.155Z,13.40
2022-12-14T15:23:42.598Z,12.30
2022-12-14T15:26:16.874Z,12.33
2022-12-14T15:28:48.066Z,17.77
2022-12-14T15:31:14.990Z,21.00
2022-12-14T15:33:43.488Z,19.87
2022-12-14T15:36:19.726Z,19.70
2022-12-14T15:38:55.054Z,16.50
2022-12-14T15:41:24.270Z,13.87
2022-12-14T15:43:55.052Z,14.67
2022-12-14T15:46:27.858Z,12.00
2022-12-14T15:49:00.081Z,13.50
2022-12-14T15:51:39.633Z,13.60
2022-12-14T15:54:12.361Z,13.13
2022-12-14T15:56:45.203Z,13.67
2022-12-14T15:59:20.951Z,12.67
2022-12-14T16:01:54.269Z,12.47
2022-12-14T16:04:25.855Z,12.77
2022-12-14T16:07:08.621Z,14.83
2022-12-14T16:09:41.787Z,13.03
2022-12-14T16:12:14.982Z,12.47
2022-12-14T16:14:47.483Z,13.70
2022-12-14T16:17:18.322Z,14.50
2022-12-14T16:20:00.447Z,13.70
2022-12-14T16:22:32.063Z,14.50
2022-12-14T16:25:07.993Z,14.13
2022-12-14T16:27:40.055Z,14.57
2022-12-14T16:30:22.162Z,12.60
2022-12-14T16:32:52.598Z,11.90
2022-12-14T16:35:23.450Z,13.77
2022-12-14T16:37:55.839Z,14.10
2022-12-14T16:40:37.372Z,14.47
2022-12-14T16:43:06.209Z,17.10
2022-12-14T16:45:35.923Z,16.57
2022-12-14T16:48:08.611Z,15.43
2022-12-14T16:53:29.952Z,16.10
2022-12-14T16:56:06.755Z,15.20
2022-12-14T16:58:36.306Z,13.40
2022-12-14T17:01:06.911Z,13.77
2022-12-14T17:03:36.742Z,15.70
2022-12-14T17:06:06.387Z,17.10
2022-12-14T17:08:33.859Z,14.40
2022-12-14T17:11:02.326Z,16.37
2022-12-14T17:13:52.268Z,16.00
2022-12-14T17:16:42.537Z,14.20
2022-12-14T17:19:37.033Z,17.17
2022-12-14T17:22:06.823Z,18.17
2022-12-14T17:24:48.101Z,18.70
2022-12-14T17:27:47.595Z,15.67
2022-12-14T17:30:22.800Z,13.93
2022-12-14T17:33:01.545Z,15.87
2022-12-14T17:35:32.309Z,14.70
2022-12-14T17:41:29.772Z,13.87
2022-12-14T17:43:57.748Z,12.27
2022-12-14T17:46:25.691Z,14.77
2022-12-14T17:48:53.610Z,13.97
2022-12-14T17:51:30.411Z,16.30
2022-12-14T17:53:59.317Z,13.07
2022-12-14T17:56:26.667Z,15.13
2022-12-14T17:59:03.088Z,14.83
2022-12-14T18:01:30.845Z,14.67
2022-12-14T18:03:58.096Z,12.70
2022-12-14T18:06:25.383Z,13.90
2022-12-14T18:08:52.735Z,14.87
2022-12-14T18:11:22.426Z,14.07
2022-12-14T18:13:49.957Z,13.70
2022-12-14T18:16:21.002Z,13.13
2022-12-14T18:18:49.232Z,12.23
2022-12-14T18:21:23.135Z,14.20
2022-12-14T18:23:50.978Z,12.47
2022-12-14T18:26:21.642Z,12.30
2022-12-14T18:28:52.649Z,12.50
2022-12-14T18:31:25.771Z,11.90
2022-12-14T18:33:53.063Z,11.87
2022-12-14T18:36:21.642Z,13.77
2022-12-14T18:38:52.130Z,14.27
2022-12-14T18:41:23.270Z,13.97
2022-12-14T18:43:50.551Z,12.00
2022-12-14T18:46:17.886Z,12.00
2022-12-14T18:51:45.494Z,10.40
2022-12-14T18:54:12.718Z,12.80
2022-12-14T18:56:45.900Z,11.30
2022-12-14T18:59:21.736Z,10.37
2022-12-14T19:01:48.932Z,12.20
2022-12-14T19:04:16.095Z,10.77
2022-12-14T19:06:46.291Z,11.17
2022-12-14T19:09:15.143Z,10.13
2022-12-14T19:11:42.724Z,10.50
2022-12-14T19:14:17.598Z,10.50
2022-12-14T19:16:44.898Z,10.23
2022-12-14T19:19:14.577Z,10.30
2022-12-14T19:21:42.138Z,11.10
2022-12-14T19:24:14.139Z,10.00
2022-12-14T19:26:44.411Z,10.10
2022-12-14T19:29:16.998Z,10.37
2022-12-14T19:31:45.145Z,11.10
2022-12-14T19:34:13.397Z,10.60
2022-12-14T19:36:40.406Z,11.30
2022-12-14T19:39:07.561Z,10.40
2022-12-14T19:41:34.508Z,9.70
2022-12-14T19:44:12.413Z,12.10
2022-12-14T19:47:01.966Z,8.50
2022-12-14T19:49:29.209Z,9.40
2022-12-14T19:51:56.179Z,11.10
2022-12-14T19:54:23.025Z,9.73
2022-12-14T19:56:53.725Z,8.80
2022-12-14T19:59:21.041Z,9.77
2022-12-14T20:01:49.270Z,9.70
2022-12-14T20:04:17.365Z,9.67
2022-12-14T20:06:44.773Z,9.37
2022-12-14T20:09:14.989Z,10.57
2022-12-14T20:11:42.889Z,9.70
2022-12-14T20:14:11.160Z,9.53
2022-12-14T20:16:38.419Z,10.17
2022-12-14T20:19:06.024Z,7.90
2022-12-14T20:21:34.416Z,8.87
2022-12-14T20:24:02.031Z,8.90
2022-12-14T20:26:30.218Z,8.60
2022-12-14T20:29:01.567Z,8.90
2022-12-14T20:31:28.936Z,8.60
2022-12-14T20:33:56.236Z,8.17
2022-12-14T20:36:23.259Z,8.00
2022-12-14T20:38:54.762Z,7.83
2022-12-14T20:41:21.803Z,8.40
2022-12-14T20:43:48.592Z,10.10
2022-12-14T20:46:36.590Z,9.10
2022-12-14T20:49:06.303Z,8.60
2022-12-14T20:51:35.844Z,8.23
2022-12-14T20:54:03.491Z,8.40
2022-12-14T20:56:30.641Z,8.97
2022-12-14T20:58:57.940Z,8.33
2022-12-14T21:01:24.828Z,7.93
2022-12-14T21:03:52.249Z,9.50
2022-12-14T21:06:21.413Z,9.23
2022-12-14T21:09:10.185Z,7.50
2022-12-14T21:11:58.037Z,8.43
2022-12-14T21:14:28.134Z,6.70
2022-12-14T21:16:54.989Z,9.10
2022-12-14T21:19:22.066Z,8.30
2022-12-14T21:21:53.513Z,8.03
2022-12-14T21:24:52.634Z,8.37
2022-12-14T21:27:17.195Z,8.93
2022-12-14T21:29:44.701Z,8.90
2022-12-14T21:32:14.958Z,9.20
2022-12-14T21:34:42.805Z,9.40
2022-12-14T21:37:10.405Z,8.63
2022-12-14T21:39:54.934Z,8.50
2022-12-14T21:42:24.723Z,9.67
2022-12-14T21:44:53.383Z,8.80
2022-12-14T21:47:26.368Z,9.87
2022-12-14T21:49:53.976Z,8.73
2022-12-14T21:52:24.610Z,10.00
2022-12-14T21:54:51.645Z,8.77
2022-12-14T21:57:49.893Z,8.87
2022-12-14T22:00:19.043Z,9.07
2022-12-14T22:02:46.331Z,10.50
2022-12-14T22:05:13.583Z,12.10
2022-12-14T22:07:40.679Z,12.40
2022-12-14T22:10:08.205Z,10.47
2022-12-14T22:12:35.235Z,10.50
2022-12-14T22:15:02.278Z,9.27
2022-12-14T22:17:29.338Z,10.87
2022-12-14T22:19:56.299Z,11.87
2022-12-14T22:22:23.403Z,10.23
2022-12-14T22:24:51.439Z,11.80
2022-12-14T22:27:19.396Z,10.40
2022-12-14T22:29:46.596Z,12.07
2022-12-14T22:32:14.025Z,10.67
2022-12-14T22:34:41.218Z,10.77
2022-12-14T22:37:08.578Z,11.37
2022-12-14T22:39:35.580Z,11.20
2022-12-14T22:42:02.671Z,10.33
2022-12-14T22:44:29.758Z,11.60
2022-12-14T22:46:56.748Z,9.73
2022-12-14T22:49:23.950Z,9.40
2022-12-14T22:51:51.001Z,10.87
2022-12-14T22:54:23.337Z,11.47
2022-12-14T22:57:06.769Z,11.73
2022-12-14T22:59:43.303Z,11.10
2022-12-14T23:02:10.480Z,10.67
2022-12-14T23:04:38.484Z,13.03
2022-12-14T23:07:06.137Z,16.27
2022-12-14T23:09:52.262Z,16.07
2022-12-14T23:12:52.344Z,17.60
2022-12-14T23:15:37.871Z,16.40
2022-12-14T23:18:30.640Z,17.93
2022-12-14T23:21:16.300Z,19.80
2022-12-14T23:24:04.323Z,19.97
2022-12-14T23:26:50.230Z,19.00
2022-12-14T23:29:35.754Z,15.87
2022-12-14T23:32:20.924Z,19.20
2022-12-14T23:35:06.308Z,19.63
2022-12-14T23:37:51.577Z,20.57
2022-12-14T23:40:37.439Z,17.47
2022-12-14T23:43:29.926Z,19.93
2022-12-14T23:46:16.175Z,19.80
2022-12-14T23:49:02.095Z,19.87
2022-12-14T23:51:47.504Z,17.80
2022-12-14T23:54:32.950Z,20.07
2022-12-14T23:57:22.812Z,19.40
